Time;durP1;ratioP1;P1;durP2;ratioP2;P2;SDS_P1;SDS_P2;PMS_P1;PMS_P2;Temp;Humidity;BMP_temperature;BMP_pressure;BME280_temperature;BME280_humidity;BME280_pressure;Samples;Min_cycle;Max_cycle;Signal;HPM_P1;HPM_P2
2021/04/22 00:31:48;;;;;;;6.20;4.22;;;;;;;7.36;69.03;99429.75;6244373;22;20019;-80
2021/04/22 00:34:22;;;;;;;6.97;4.60;;;;;;;7.32;68.35;99423.31;6259797;22;20038;-80
2021/04/22 00:36:48;;;;;;;6.95;4.88;;;;;;;7.31;68.39;99422.53;6213499;22;19999;-80
2021/04/22 00:39:14;;;;;;;5.15;3.67;;;;;;;7.27;69.07;99425.91;6255587;22;20006;-80
2021/04/22 00:47:48;;;;;;;10.32;4.32;;;;;;;7.19;69.30;99421.84;6264800;22;20353;-79
2021/04/22 00:57:38;;;;;;;7.10;4.35;;;;;;;7.17;70.16;99426.59;6286177;22;20014;-80
2021/04/22 01:10:42;;;;;;;3.65;2.75;;;;;;;6.98;68.55;99439.31;5939425;24;20507;-78
2021/04/22 02:47:38;;;;;;;7.57;3.70;;;;;;;6.59;69.59;99457.81;6199751;22;19918;31
2021/04/22 02:50:06;;;;;;;5.15;3.70;;;;;;;6.57;69.58;99455.41;6193233;23;20055;-79
2021/04/22 02:56:18;;;;;;;5.25;3.17;;;;;;;6.60;69.42;99454.91;6229984;23;20007;-81
2021/04/22 02:59:23;;;;;;;4.38;3.35;;;;;;;6.62;69.86;99458.16;6210165;23;20011;-79
2021/04/22 03:02:23;;;;;;;4.18;2.97;;;;;;;6.63;69.46;99462.41;6107073;23;20005;-80
2021/04/22 03:36:21;;;;;;;10.90;5.85;;;;;;;6.42;69.93;99490.50;6199155;22;20042;31
2021/04/22 03:56:10;;;;;;;9.48;5.53;;;;;;;8.23;65.85;99493.16;6272885;22;20042;-85
2021/04/22 03:59:37;;;;;;;16.67;6.82;;;;;;;8.82;64.80;99503.13;6222931;23;20038;-86
2021/04/22 04:06:24;;;;;;;6.82;4.47;;;;;;;10.01;61.89;99499.38;6211057;23;20060;-86
2021/04/22 04:08:53;;;;;;;8.98;6.10;;;;;;;10.56;60.54;99501.72;6211118;23;20020;-93
2021/04/22 04:11:18;;;;;;;7.85;4.85;;;;;;;11.00;59.20;99506.59;6211355;23;20477;-85
2021/04/22 04:13:44;;;;;;;5.78;4.38;;;;;;;11.49;57.97;99507.09;6210821;23;20000;-82
2021/04/22 04:16:09;;;;;;;5.05;3.95;;;;;;;11.94;56.50;99496.53;6210757;23;20461;-78
2021/04/22 04:18:34;;;;;;;11.57;7.43;;;;;;;12.40;55.34;99512.47;6210621;23;20064;-77
2021/04/22 04:21:00;;;;;;;9.25;5.75;;;;;;;12.87;53.74;99510.28;6185903;23;20507;-77
2021/04/22 04:23:25;;;;;;;9.13;6.32;;;;;;;13.31;52.09;99508.59;6210719;23;20453;-78
2021/04/22 04:25:51;;;;;;;10.05;6.90;;;;;;;13.75;50.43;99504.94;6210623;23;20055;-78
2021/04/22 04:28:17;;;;;;;6.80;5.05;;;;;;;14.18;48.82;99496.09;6212616;23;20008;-78
2021/04/22 04:30:43;;;;;;;7.22;5.60;;;;;;;14.58;47.95;99502.03;6212361;23;20004;-78
2021/04/22 04:33:08;;;;;;;7.65;5.80;;;;;;;15.00;46.98;99506.81;6213683;23;20330;-77
2021/04/22 04:35:34;;;;;;;9.48;6.60;;;;;;;15.38;45.36;99501.34;6187659;23;20008;-79
2021/04/22 04:38:00;;;;;;;10.75;6.15;;;;;;;15.73;44.76;99503.69;6212241;23;20005;-78
2021/04/22 04:40:25;;;;;;;14.02;7.07;;;;;;;16.13;43.94;99512.88;6212535;23;20082;-79
2021/04/22 04:42:51;;;;;;;12.68;8.20;;;;;;;16.48;42.95;99513.22;6217017;23;20428;-78
2021/04/22 04:45:18;;;;;;;7.18;5.75;;;;;;;16.84;41.76;99511.63;6217617;23;20333;-79
2021/04/22 04:47:45;;;;;;;5.95;5.00;;;;;;;17.19;41.38;99514.59;6242251;23;20000;-78
2021/04/22 04:50:12;;;;;;;6.28;4.53;;;;;;;17.53;40.09;99525.94;6217231;23;20015;-78
2021/04/22 04:52:37;;;;;;;5.72;4.25;;;;;;;17.87;39.64;99522.56;6217297;23;19996;-79
2021/04/22 04:55:04;;;;;;;6.05;4.78;;;;;;;18.19;38.90;99527.94;6217449;23;20008;-78
2021/04/22 04:57:30;;;;;;;7.30;3.38;;;;;;;18.47;38.26;99528.47;6242518;23;20008;-78
2021/04/22 04:59:55;;;;;;;11.10;5.57;;;;;;;18.72;37.88;99528.78;6242340;23;20007;-79
2021/04/22 05:02:22;;;;;;;13.02;7.22;;;;;;;18.96;36.93;99522.91;6217193;23;20007;-79
2021/04/22 05:04:47;;;;;;;14.88;8.93;;;;;;;19.17;37.10;99524.97;6217310;23;20333;-79
2021/04/22 05:07:13;;;;;;;16.13;7.65;;;;;;;19.41;37.10;99529.06;6217374;23;19996;-79
2021/04/22 05:09:38;;;;;;;15.07;8.10;;;;;;;19.62;36.37;99527.22;6217126;23;20083;-79
2021/04/22 05:12:06;;;;;;;19.85;9.25;;;;;;;19.87;36.42;99529.41;6217508;23;20038;-78
2021/04/22 05:14:31;;;;;;;16.25;7.43;;;;;;;20.07;36.08;99531.38;6242822;23;20318;-77
2021/04/22 05:16:57;;;;;;;10.50;6.03;;;;;;;20.27;35.68;99529.03;6216970;23;20008;-78
2021/04/22 05:19:22;;;;;;;12.63;6.35;;;;;;;20.50;35.17;99517.88;6217314;23;19997;-78
2021/04/22 05:21:48;;;;;;;8.63;5.07;;;;;;;20.65;35.08;99525.41;6243586;23;20004;-78
2021/04/22 05:24:13;;;;;;;8.10;4.90;;;;;;;20.77;34.78;99524.72;6242666;23;20049;-78
2021/04/22 05:26:39;;;;;;;6.03;4.13;;;;;;;20.91;34.65;99525.22;6216943;23;20000;-77
2021/04/22 05:29:05;;;;;;;9.00;4.88;;;;;;;21.09;35.19;99516.91;6217229;23;20027;-77
2021/04/22 05:31:30;;;;;;;6.25;4.75;;;;;;;21.29;34.96;99526.16;6217121;23;19999;-78
2021/04/22 05:33:56;;;;;;;7.93;4.93;;;;;;;21.44;34.15;99519.25;6216893;23;20422;-77
2021/04/22 05:36:21;;;;;;;8.05;5.10;;;;;;;21.67;33.90;99535.22;6242506;23;20000;-78
2021/04/22 05:38:47;;;;;;;10.95;6.78;;;;;;;21.87;33.58;99528.06;6216884;23;20004;-78
2021/04/22 05:41:13;;;;;;;9.88;5.60;;;;;;;21.97;32.81;99529.53;6217091;23;20046;-78
2021/04/22 05:43:38;;;;;;;24.80;15.30;;;;;;;21.86;32.99;99531.91;6216884;23;20008;-78
2021/04/22 05:46:04;;;;;;;13.85;8.55;;;;;;;21.85;33.12;99528.41;6217158;23;20034;-78
2021/04/22 05:48:29;;;;;;;11.48;7.80;;;;;;;21.85;33.54;99530.31;6243725;23;20007;-77
2021/04/22 05:50:55;;;;;;;7.57;6.38;;;;;;;21.78;33.15;99525.47;6216534;23;20011;-77
2021/04/22 05:53:21;;;;;;;8.60;6.15;;;;;;;21.83;33.44;99527.16;6243620;23;20071;-77
2021/04/22 05:55:48;;;;;;;8.18;6.35;;;;;;;21.93;33.23;99529.41;6216609;23;20073;-77
2021/04/22 05:58:13;;;;;;;11.38;7.82;;;;;;;21.97;33.26;99535.78;6242115;23;20008;-79
2021/04/22 06:00:39;;;;;;;7.30;6.28;;;;;;;22.04;33.15;99538.72;6243625;23;20023;-77
2021/04/22 06:03:05;;;;;;;10.70;6.93;;;;;;;22.07;32.54;99542.72;6242156;23;20003;-77
2021/04/22 06:05:30;;;;;;;7.63;5.90;;;;;;;22.10;32.81;99535.78;6243519;23;20024;-79
2021/04/22 06:07:56;;;;;;;9.10;7.18;;;;;;;22.20;32.93;99541.56;6241925;23;20060;-77
2021/04/22 06:10:22;;;;;;;7.20;5.78;;;;;;;22.20;32.63;99536.13;6216816;23;20000;-77
2021/04/22 06:12:48;;;;;;;7.57;6.43;;;;;;;22.25;33.06;99545.97;6215960;23;20004;-77
2021/04/22 06:15:15;;;;;;;11.05;5.88;;;;;;;22.25;32.38;99548.69;6241879;23;20042;-79
2021/04/22 06:17:41;;;;;;;9.43;6.68;;;;;;;22.18;32.48;99549.28;6216430;23;20000;-77
2021/04/22 06:20:13;;;;;;;10.77;6.57;;;;;;;22.14;33.02;99558.47;6216782;23;20000;-77
2021/04/22 06:22:39;;;;;;;7.85;6.40;;;;;;;22.03;32.80;99555.41;6216682;23;20004;-77
2021/04/22 06:25:06;;;;;;;9.30;6.50;;;;;;;21.95;33.82;99554.38;6215991;23;20004;-77
2021/04/22 06:27:32;;;;;;;8.10;6.50;;;;;;;21.86;33.83;99553.69;6242099;23;19999;-77
2021/04/22 06:29:58;;;;;;;7.47;5.97;;;;;;;21.83;34.40;99551.66;6243046;23;20004;-77
2021/04/22 06:32:23;;;;;;;9.30;7.45;;;;;;;21.73;34.22;99553.69;6216569;23;20031;-79
2021/04/22 06:34:49;;;;;;;10.18;7.32;;;;;;;21.61;35.09;99555.63;6216326;23;19996;-78
2021/04/22 06:37:14;;;;;;;5.38;4.88;;;;;;;21.51;33.97;99551.38;6243472;23;20015;-77
2021/04/22 06:39:40;;;;;;;10.05;5.85;;;;;;;21.27;34.15;99550.16;6216679;23;20054;-78
2021/04/22 06:42:06;;;;;;;6.18;5.13;;;;;;;21.01;34.10;99555.88;6242008;23;20000;-78
2021/04/22 06:44:32;;;;;;;10.32;6.20;;;;;;;20.81;35.28;99560.16;6216363;23;20474;-76
2021/04/22 06:46:59;;;;;;;6.50;5.40;;;;;;;20.66;35.77;99564.25;6215886;23;20062;-76
2021/04/22 06:49:26;;;;;;;6.77;4.87;;;;;;;20.48;35.90;99562.47;6243151;23;20023;-77
2021/04/22 06:51:52;;;;;;;7.30;5.78;;;;;;;20.34;35.85;99561.13;6242684;23;20004;-79
2021/04/22 06:54:17;;;;;;;5.55;4.75;;;;;;;20.08;36.09;99560.13;6241869;23;19996;-79
2021/04/22 06:56:42;;;;;;;7.30;5.25;;;;;;;19.90;36.96;99569.47;6240829;23;20476;-79
2021/04/22 06:59:08;;;;;;;6.05;5.00;;;;;;;19.77;37.55;99560.38;6241645;23;20008;-77
2021/04/22 07:01:34;;;;;;;6.32;5.20;;;;;;;19.71;37.63;99559.75;6243197;23;19996;-76
2021/04/22 07:03:59;;;;;;;6.35;4.53;;;;;;;19.68;38.62;99557.72;6241428;23;20054;-76
2021/04/22 07:06:25;;;;;;;5.88;4.53;;;;;;;19.61;38.17;99560.13;6216482;23;20004;-79
2021/04/22 07:08:50;;;;;;;7.72;5.75;;;;;;;19.50;38.20;99560.44;6216168;23;20012;-77
2021/04/22 07:11:16;;;;;;;8.77;6.45;;;;;;;19.26;38.75;99562.91;6243032;23;20000;-77
2021/04/22 07:13:42;;;;;;;6.97;5.80;;;;;;;19.09;39.19;99563.72;6216309;23;20007;-77
2021/04/22 07:16:07;;;;;;;5.00;4.43;;;;;;;18.94;39.89;99560.38;6241824;23;20034;-77
2021/04/22 07:18:33;;;;;;;5.03;3.65;;;;;;;18.77;40.00;99569.28;6217937;23;20310;-77
2021/04/22 07:20:59;;;;;;;5.00;4.60;;;;;;;18.57;40.40;99570.69;6218290;23;20062;-77
2021/04/22 07:23:24;;;;;;;6.97;5.13;;;;;;;18.38;40.41;99562.84;6245435;23;20079;-77
2021/04/22 07:25:51;;;;;;;7.45;6.22;;;;;;;18.21;40.84;99569.00;6243424;23;20440;-77
2021/04/22 07:28:16;;;;;;;6.53;5.22;;;;;;;18.02;41.15;99572.78;6245720;23;20069;-77
2021/04/22 07:30:42;;;;;;;6.05;4.90;;;;;;;17.83;41.54;99562.16;6245059;23;20037;-77
2021/04/22 07:33:08;;;;;;;8.00;5.50;;;;;;;17.73;41.84;99560.53;6243388;23;20054;-77
2021/04/22 07:35:35;;;;;;;9.82;6.97;;;;;;;17.60;42.61;99564.94;6218422;23;20395;-77
2021/04/22 07:38:00;;;;;;;8.45;6.70;;;;;;;17.55;41.90;99559.66;6218042;23;20008;-77
2021/04/22 07:40:28;;;;;;;7.63;6.35;;;;;;;17.50;42.44;99567.09;6218232;23;20087;-79
2021/04/22 07:42:54;;;;;;;13.52;6.55;;;;;;;17.46;42.50;99566.13;6217946;23;20011;-77
2021/04/22 07:45:27;;;;;;;9.10;6.57;;;;;;;17.35;43.01;99560.19;6245101;23;20027;-79
2021/04/22 07:47:53;;;;;;;9.13;6.43;;;;;;;17.32;43.26;99563.47;6217931;23;20020;-77
2021/04/22 07:50:20;;;;;;;9.82;6.13;;;;;;;17.24;43.26;99555.00;6218219;23;20008;-77
2021/04/22 07:52:46;;;;;;;8.43;6.28;;;;;;;17.33;42.89;99565.88;6217758;23;20004;-77
2021/04/22 07:55:16;;;;;;;6.70;5.57;;;;;;;17.31;42.79;99559.19;6243517;23;20004;-77
2021/04/22 07:57:42;;;;;;;8.63;5.80;;;;;;;17.29;43.19;99568.38;6244443;23;20016;-77
2021/04/22 08:00:11;;;;;;;6.32;4.82;;;;;;;17.30;44.06;99566.50;6217743;23;20024;-76
2021/04/22 08:02:37;;;;;;;6.55;5.18;;;;;;;17.27;43.31;99567.91;6245087;23;20000;-77
2021/04/22 08:05:04;;;;;;;6.20;4.75;;;;;;;17.31;42.26;99570.81;6244640;23;20003;-79
2021/04/22 08:07:29;;;;;;;8.50;5.82;;;;;;;17.33;43.14;99570.50;6243482;23;20004;-78
2021/04/22 08:09:55;;;;;;;8.02;4.57;;;;;;;17.34;43.02;99567.47;6217908;23;20038;-78
2021/04/22 08:12:20;;;;;;;5.13;4.03;;;;;;;17.39;43.16;99564.66;6243248;23;20015;-78
2021/04/22 08:14:46;;;;;;;6.15;3.80;;;;;;;17.40;42.12;99566.22;6217913;23;20000;-78
2021/04/22 08:17:11;;;;;;;5.28;3.38;;;;;;;17.40;41.25;99568.16;6243364;23;20004;-78
2021/04/22 08:19:37;;;;;;;5.70;3.33;;;;;;;17.40;41.70;99565.44;6244630;23;19996;-78
2021/04/22 08:22:02;;;;;;;4.63;3.42;;;;;;;17.38;42.21;99565.75;6217672;23;20006;-78
2021/04/22 08:24:28;;;;;;;3.22;2.90;;;;;;;17.31;41.41;99570.81;6244582;23;20187;-78
2021/04/22 08:26:53;;;;;;;3.03;2.40;;;;;;;17.23;42.05;99561.50;6217205;23;20332;-79
2021/04/22 08:29:19;;;;;;;3.58;2.90;;;;;;;17.25;42.03;99561.22;6217232;23;20000;-78
2021/04/22 08:31:45;;;;;;;3.10;2.80;;;;;;;17.27;41.91;99559.81;6217684;23;20000;-79
2021/04/22 08:34:10;;;;;;;2.58;2.38;;;;;;;17.32;40.66;99556.19;6242746;23;19999;-78
2021/04/22 08:36:36;;;;;;;3.33;2.67;;;;;;;17.37;40.33;99555.25;6243160;23;20007;-78
2021/04/22 08:39:07;;;;;;;2.45;2.25;;;;;;;17.42;40.74;99553.22;6217500;23;20475;-79
2021/04/22 08:41:33;;;;;;;3.47;2.83;;;;;;;17.43;40.45;99557.53;6243074;23;20004;-79
2021/04/22 08:44:00;;;;;;;3.75;2.80;;;;;;;17.40;40.82;99555.41;6217245;23;20134;-79
2021/04/22 08:46:27;;;;;;;4.57;2.58;;;;;;;17.40;41.44;99558.13;6217749;23;20006;-79
2021/04/22 08:48:53;;;;;;;2.67;2.45;;;;;;;17.43;41.36;99554.81;6244258;23;20002;-79
2021/04/22 08:51:19;;;;;;;2.33;2.08;;;;;;;17.37;41.61;99556.06;6242991;23;20004;-77
2021/04/22 08:53:46;;;;;;;2.58;2.38;;;;;;;17.38;41.34;99559.53;6217584;23;20310;-77
2021/04/22 08:56:12;;;;;;;2.53;2.33;;;;;;;17.36;41.98;99550.97;6217157;23;20000;-77
2021/04/22 08:58:38;;;;;;;3.28;2.97;;;;;;;17.35;42.19;99543.94;6217602;23;20069;-77
2021/04/22 09:01:11;;;;;;;3.03;2.38;;;;;;;17.44;42.20;99545.59;6242550;23;20421;-78
2021/04/22 09:03:37;;;;;;;4.60;2.53;;;;;;;17.49;42.92;99539.28;6242863;23;20024;-78
2021/04/22 09:06:03;;;;;;;2.60;2.40;;;;;;;17.47;43.12;99549.59;6217195;23;20011;-78
2021/04/22 09:08:38;;;;;;;3.00;2.63;;;;;;;17.51;43.07;99536.25;6217384;23;20008;-78
2021/04/22 09:11:06;;;;;;;5.65;2.38;;;;;;;17.60;43.26;99542.47;6244171;23;20007;-78
2021/04/22 09:13:34;;;;;;;6.20;2.63;;;;;;;17.64;42.59;99539.94;6217378;23;20022;-78
2021/04/22 09:16:09;;;;;;;2.85;1.88;;;;;;;17.68;42.62;99530.91;6242529;23;20000;-78
2021/04/22 09:18:44;;;;;;;4.03;2.50;;;;;;;17.72;42.68;99539.19;6217320;23;20087;-78
2021/04/22 09:21:30;;;;;;;2.15;1.95;;;;;;;17.79;40.40;99526.03;6242271;23;20463;-77
2021/04/22 09:24:11;;;;;;;2.13;1.92;;;;;;;17.83;40.75;99521.56;6217156;23;20337;-77
2021/04/22 09:26:52;;;;;;;3.95;2.33;;;;;;;17.95;41.07;99521.03;6244095;23;20000;-78
2021/04/22 09:29:44;;;;;;;1.98;1.88;;;;;;;18.01;40.86;99514.34;6217451;23;19996;-77
2021/04/22 09:32:20;;;;;;;3.47;2.25;;;;;;;18.03;40.08;99505.94;6217002;23;20001;-78
2021/04/22 09:34:48;;;;;;;2.20;2.00;;;;;;;18.08;39.70;99495.75;6244167;23;20080;-77
2021/04/22 09:37:15;;;;;;;2.28;2.00;;;;;;;18.19;39.40;99498.16;6241992;23;20030;-77
2021/04/22 09:39:41;;;;;;;2.03;1.83;;;;;;;18.28;39.48;99498.97;6242265;23;20011;-79
2021/04/22 09:42:12;;;;;;;2.30;2.10;;;;;;;18.34;38.67;99488.78;6216954;23;20008;-79
2021/04/22 09:44:40;;;;;;;2.10;1.90;;;;;;;18.36;38.51;99490.06;6216803;23;20007;-79
2021/04/22 09:47:11;;;;;;;2.42;2.22;;;;;;;18.37;37.60;99488.13;6216504;23;20149;-76
2021/04/22 09:49:59;;;;;;;3.58;1.92;;;;;;;18.40;36.78;99484.81;6217195;23;20392;-79
2021/04/22 09:52:38;;;;;;;1.88;1.77;;;;;;;18.41;37.12;99478.28;6217110;23;20004;-78
2021/04/22 09:55:05;;;;;;;1.70;1.60;;;;;;;18.45;36.63;99483.88;6243682;23;20003;-77
2021/04/22 09:57:34;;;;;;;2.03;1.85;;;;;;;18.43;36.90;99467.13;6243718;23;20507;-78
2021/04/22 10:00:03;;;;;;;2.72;1.80;;;;;;;18.40;37.27;99465.84;6216730;23;20008;-78
2021/04/22 10:02:28;;;;;;;;;;;;;;;18.46;36.44;99455.69;6244405;23;20430;-76
2021/04/22 10:04:56;;;;;;;2.35;2.10;;;;;;;18.50;34.56;99465.53;6241999;23;19918;-76
2021/04/22 10:07:32;;;;;;;1.95;1.70;;;;;;;18.58;32.94;99450.41;6216957;23;20000;-78
2021/04/22 10:10:01;;;;;;;2.03;1.65;;;;;;;18.65;33.37;99455.34;6216673;23;20049;-77
2021/04/22 10:12:34;;;;;;;7.75;2.03;;;;;;;18.73;32.97;99449.91;6241619;23;20011;-78
2021/04/22 10:15:22;;;;;;;1.85;1.73;;;;;;;18.81;32.17;99455.63;6243425;23;20003;-79
2021/04/22 10:17:55;;;;;;;2.50;1.60;;;;;;;18.82;31.53;99441.78;6243241;23;20000;-78
2021/04/22 10:20:23;;;;;;;2.65;1.65;;;;;;;18.85;31.63;99434.91;6216630;23;20012;-79
2021/04/22 10:22:52;;;;;;;1.48;1.38;;;;;;;18.92;31.05;99442.56;6216788;23;20401;-79
2021/04/22 10:25:20;;;;;;;1.58;1.48;;;;;;;18.97;30.89;99440.50;6243126;23;20000;-79
2021/04/22 10:27:46;;;;;;;1.88;1.50;;;;;;;18.99;30.29;99432.03;6216452;23;20407;-78
2021/04/22 10:30:21;;;;;;;1.50;1.40;;;;;;;18.95;29.40;99431.88;6243013;23;20019;-77
2021/04/22 10:32:47;;;;;;;1.38;1.27;;;;;;;18.95;28.23;99431.09;6216715;23;20083;-77
2021/04/22 10:35:17;;;;;;;1.17;1.08;;;;;;;18.95;28.76;99422.97;6243394;23;20043;-77
2021/04/22 10:37:45;;;;;;;1.95;1.35;;;;;;;19.01;29.31;99422.47;6243633;23;20004;-77
2021/04/22 10:40:13;;;;;;;2.08;1.98;;;;;;;19.01;28.30;99424.38;6216522;23;20520;-77
2021/04/22 10:42:39;;;;;;;1.30;1.17;;;;;;;19.07;28.41;99419.59;6242103;23;20040;-77
2021/04/22 10:45:08;;;;;;;1.75;1.40;;;;;;;19.14;27.83;99409.03;6216487;23;20004;-78
2021/04/22 10:47:33;;;;;;;2.47;1.42;;;;;;;19.18;27.66;99405.34;6241852;23;20004;-78
2021/04/22 10:49:59;;;;;;;1.17;1.10;;;;;;;19.16;27.62;99407.59;6216400;23;20479;-77
2021/04/22 10:52:25;;;;;;;1.38;1.20;;;;;;;19.22;26.70;99410.91;6242855;23;20078;-76
2021/04/22 10:54:52;;;;;;;2.08;1.42;;;;;;;19.31;26.00;99402.75;6241662;23;20448;-77
2021/04/22 10:57:21;;;;;;;1.00;1.00;;;;;;;19.41;26.16;99399.69;6215883;23;20012;-78
2021/04/22 10:59:48;;;;;;;1.55;1.45;;;;;;;19.50;26.09;99411.25;6216525;23;20007;-78
2021/04/22 11:02:19;;;;;;;1.02;1.02;;;;;;;19.58;26.28;99392.56;6216119;23;20078;-78
2021/04/22 11:04:46;;;;;;;4.35;2.90;;;;;;;19.63;26.42;99385.03;6216527;23;20024;-77
2021/04/22 11:07:21;;;;;;;1.48;1.38;;;;;;;19.67;25.81;99385.97;6216345;23;20003;-77
2021/04/22 11:09:48;;;;;;;1.30;1.20;;;;;;;19.69;25.08;99382.94;6241676;23;20007;-77
2021/04/22 11:12:23;;;;;;;1.30;1.20;;;;;;;19.68;25.22;99384.84;6241285;23;20414;-77
2021/04/22 11:14:52;;;;;;;1.33;1.25;;;;;;;19.62;24.92;99374.53;6243417;23;20000;-78
2021/04/22 11:17:18;;;;;;;3.05;1.17;;;;;;;19.59;25.94;99373.28;6241369;23;19996;-79
2021/04/22 11:19:46;;;;;;;0.90;0.90;;;;;;;19.60;25.66;99377.53;6241648;23;20004;-78
2021/04/22 11:22:26;;;;;;;1.67;1.48;;;;;;;19.67;26.19;99377.03;6241343;23;20008;-79
2021/04/22 11:24:54;;;;;;;1.42;1.20;;;;;;;19.71;27.07;99367.09;6216371;23;20000;-78
2021/04/22 11:27:22;;;;;;;1.63;1.53;;;;;;;19.77;26.71;99367.72;6241390;23;20091;-79
2021/04/22 11:29:57;;;;;;;1.92;1.67;;;;;;;19.80;26.78;99361.66;6243290;23;19996;-79
2021/04/22 11:32:24;;;;;;;1.85;1.58;;;;;;;19.83;27.19;99361.81;6241467;23;20004;-79
2021/04/22 11:34:53;;;;;;;1.17;1.10;;;;;;;19.87;25.88;99353.78;6216215;23;20054;-79
2021/04/22 11:37:40;;;;;;;1.50;1.08;;;;;;;19.93;25.62;99347.06;6242835;23;20008;-79
2021/04/22 11:40:15;;;;;;;1.58;1.48;;;;;;;19.99;25.63;99348.44;6216125;23;20010;-79
2021/04/22 11:42:43;;;;;;;2.33;1.85;;;;;;;20.07;25.38;99343.28;6241615;23;20030;-79
2021/04/22 11:45:09;;;;;;;;;;;;;;;20.15;25.62;99345.91;6216422;23;20004;-78
2021/04/22 11:47:35;;;;;;;1.75;1.65;;;;;;;20.24;25.72;99334.97;6242906;23;19899;-79
2021/04/22 11:50:10;;;;;;;2.17;1.20;;;;;;;20.33;25.17;99334.09;6241274;23;20012;-79
2021/04/22 11:52:54;;;;;;;3.30;1.05;;;;;;;20.46;25.26;99336.50;6241465;23;20000;-79
2021/04/22 11:55:44;;;;;;;2.85;1.52;;;;;;;20.55;24.10;99339.13;6241204;23;20000;-79
2021/04/22 11:58:12;;;;;;;1.27;1.17;;;;;;;20.63;23.98;99329.31;6242965;23;20008;-79
2021/04/22 12:00:42;;;;;;;1.75;1.38;;;;;;;20.64;24.18;99318.09;6241658;23;20058;-79
2021/04/22 12:03:10;;;;;;;1.23;1.13;;;;;;;20.68;24.46;99311.97;6216079;23;20453;-79
2021/04/22 12:05:36;;;;;;;1.40;1.25;;;;;;;20.72;24.83;99316.44;6217994;23;20006;-79
2021/04/22 12:08:04;;;;;;;1.52;1.38;;;;;;;20.77;24.61;99313.50;6217896;23;20425;-79
2021/04/22 12:10:33;;;;;;;1.88;1.27;;;;;;;20.81;24.52;99302.75;6244897;23;20068;-78
2021/04/22 12:13:09;;;;;;;1.40;1.30;;;;;;;20.90;23.81;99308.09;6218054;23;19996;-78
2021/04/22 12:15:40;;;;;;;1.10;1.00;;;;;;;20.92;22.71;99313.97;6244723;23;20078;-78
2021/04/22 12:18:07;;;;;;;1.05;0.95;;;;;;;20.87;23.10;99295.97;6245102;23;20003;-79
2021/04/22 12:20:33;;;;;;;1.13;1.03;;;;;;;20.90;24.22;99300.72;6244998;23;20004;-79
2021/04/22 12:22:58;;;;;;;1.33;1.20;;;;;;;20.91;24.11;99309.66;6217947;23;20230;-79
2021/04/22 12:25:25;;;;;;;1.60;1.50;;;;;;;20.93;24.74;99308.22;6244696;23;20015;-79
2021/04/22 12:27:57;;;;;;;1.90;1.38;;;;;;;20.91;24.70;99294.16;6243167;23;19996;-79
2021/04/22 12:30:32;;;;;;;1.48;1.35;;;;;;;20.92;24.90;99303.09;6217623;23;20085;-79
2021/04/22 12:33:09;;;;;;;2.22;1.10;;;;;;;20.90;25.34;99298.00;6217777;23;20377;-78
2021/04/22 12:35:35;;;;;;;1.33;1.10;;;;;;;20.88;25.38;99289.38;6244761;23;20027;-79
2021/04/22 12:38:33;;;;;;;1.35;1.25;;;;;;;20.88;26.03;99288.59;6244355;23;20004;-79
2021/04/22 12:41:00;;;;;;;1.98;1.30;;;;;;;20.89;25.58;99271.16;6217858;23;20443;-78
2021/04/22 12:43:29;;;;;;;1.40;1.27;;;;;;;20.90;25.94;99284.41;6244268;23;20028;-78
2021/04/22 12:46:11;;;;;;;1.33;1.30;;;;;;;20.88;25.83;99270.34;6244698;23;20003;-78
2021/04/22 12:48:38;;;;;;;1.85;1.25;;;;;;;20.87;25.81;99268.78;6217637;23;20114;-78
2021/04/22 12:51:04;;;;;;;1.17;1.17;;;;;;;20.84;25.95;99258.59;6242686;23;20008;-79
2021/04/22 12:53:40;;;;;;;1.98;1.23;;;;;;;20.86;26.00;99264.47;6242825;23;20004;-78
2021/04/22 12:56:11;;;;;;;1.50;1.33;;;;;;;20.85;26.74;99254.75;6243713;23;20031;-78
2021/04/22 12:58:40;;;;;;;1.60;1.50;;;;;;;20.83;26.90;99253.50;6217643;23;20099;-78
2021/04/22 13:01:13;;;;;;;1.02;0.98;;;;;;;20.83;26.62;99240.69;6244263;23;20000;-78
2021/04/22 13:03:41;;;;;;;1.40;1.30;;;;;;;20.89;26.37;99252.91;6244465;23;20345;-78
2021/04/22 13:06:10;;;;;;;2.38;1.42;;;;;;;20.91;26.43;99253.38;6244237;23;20004;-79
2021/04/22 13:08:37;;;;;;;3.45;2.13;;;;;;;20.93;26.46;99244.88;6217598;23;20000;-78
2021/04/22 13:11:05;;;;;;;1.55;1.42;;;;;;;20.95;26.77;99237.97;6244135;23;20000;-78
2021/04/22 13:13:34;;;;;;;1.70;1.60;;;;;;;20.97;27.33;99255.88;6217525;23;20000;-78
2021/04/22 13:16:14;;;;;;;3.95;1.60;;;;;;;20.95;29.17;99248.84;6242665;23;20000;-78
2021/04/22 13:18:41;;;;;;;2.33;1.75;;;;;;;20.90;31.56;99246.34;6244182;23;20000;-78
2021/04/22 13:21:21;;;;;;;1.88;1.67;;;;;;;20.85;32.16;99243.06;6242443;23;20358;-79
2021/04/22 13:23:48;;;;;;;1.73;1.63;;;;;;;20.74;32.19;99237.31;6242276;23;20011;-78
2021/04/22 13:26:22;;;;;;;1.92;1.65;;;;;;;20.73;32.08;99231.06;6243760;23;20028;-78
2021/04/22 13:28:49;;;;;;;3.17;1.75;;;;;;;20.71;31.80;99232.50;6217293;23;20091;-78
2021/04/22 13:31:26;;;;;;;3.20;1.70;;;;;;;20.70;32.21;99218.13;6217002;23;20338;-79
2021/04/22 13:34:12;;;;;;;2.78;1.55;;;;;;;20.75;31.40;99228.00;6217205;23;20015;-79
2021/04/22 13:37:02;;;;;;;1.92;1.83;;;;;;;20.76;30.37;99248.63;6242556;23;20426;-78
2021/04/22 13:39:33;;;;;;;1.38;1.27;;;;;;;20.71;30.22;99224.34;6226782;23;20436;-79
2021/04/22 13:41:59;;;;;;;1.75;1.65;;;;;;;20.72;30.17;99228.69;6216753;23;20010;-78
2021/04/22 13:44:30;;;;;;;2.28;1.80;;;;;;;20.74;30.51;99215.56;6242131;23;20460;-78
2021/04/22 13:46:57;;;;;;;2.25;1.98;;;;;;;20.73;29.79;99214.75;6243518;23;20310;-78
2021/04/22 13:49:26;;;;;;;1.55;1.30;;;;;;;20.76;29.64;99213.28;6242159;23;20004;-79
2021/04/22 13:51:52;;;;;;;;;;;;;;;20.77;29.77;99207.50;6244390;23;20378;-79
2021/04/22 13:54:21;;;;;;;1.83;1.73;;;;;;;20.79;30.32;99212.63;6241986;23;19904;-79
2021/04/22 13:56:47;;;;;;;2.78;1.70;;;;;;;20.78;31.24;99197.44;6241797;23;20008;-78
2021/04/22 13:59:16;;;;;;;2.13;1.65;;;;;;;20.81;31.11;99194.03;6243856;23;20027;-79
2021/04/22 14:01:42;;;;;;;1.95;1.58;;;;;;;20.83;27.35;99213.50;6216572;23;20038;-78
2021/04/22 14:04:11;;;;;;;1.58;1.45;;;;;;;20.85;27.08;99200.38;6243510;23;20000;-78
2021/04/22 14:06:39;;;;;;;1.15;1.15;;;;;;;20.86;26.11;99193.00;6216829;23;20004;-79
2021/04/22 14:09:06;;;;;;;2.00;1.40;;;;;;;20.88;26.28;99205.13;6243671;23;20007;-79
2021/04/22 14:11:43;;;;;;;2.25;1.20;;;;;;;20.93;25.67;99199.47;6243677;23;19996;-79
2021/04/22 14:14:10;;;;;;;1.30;1.20;;;;;;;20.93;25.58;99187.78;6243372;23;20448;-79
2021/04/22 14:16:36;;;;;;;3.28;1.42;;;;;;;21.01;26.43;99186.09;6242085;23;20083;-78
2021/04/22 14:19:10;;;;;;;2.17;1.55;;;;;;;21.07;26.23;99190.94;6237905;23;20028;-80
2021/04/22 14:21:37;;;;;;;1.40;1.30;;;;;;;21.15;25.94;99180.28;6241297;23;20008;-79
2021/04/22 14:24:03;;;;;;;1.35;1.20;;;;;;;21.20;26.07;99177.31;6241635;23;20019;-78
2021/04/22 14:26:29;;;;;;;1.38;1.27;;;;;;;21.22;26.76;99181.28;6242150;23;20495;-78
2021/04/22 14:28:54;;;;;;;2.00;1.35;;;;;;;21.25;26.83;99177.06;6242403;23;20000;-80
2021/04/22 14:31:20;;;;;;;1.10;1.00;;;;;;;21.24;27.49;99175.50;6240818;23;20004;-80
2021/04/22 14:33:45;;;;;;;1.30;1.10;;;;;;;21.22;28.17;99177.78;6240547;23;20448;-81
2021/04/22 14:36:12;;;;;;;1.55;1.15;;;;;;;21.20;28.35;99175.41;6215422;23;20433;-80
2021/04/22 14:38:37;;;;;;;1.38;1.27;;;;;;;21.18;29.08;99165.97;6215673;23;20004;-80
2021/04/22 14:41:04;;;;;;;1.58;1.48;;;;;;;21.19;28.79;99165.66;6214795;23;20011;-80
2021/04/22 14:43:30;;;;;;;2.05;1.38;;;;;;;21.20;29.46;99161.00;6215223;23;20012;-80
2021/04/22 14:45:56;;;;;;;1.95;1.45;;;;;;;21.19;30.40;99164.84;6215506;23;20065;-80
2021/04/22 14:48:21;;;;;;;2.25;1.60;;;;;;;21.14;30.64;99173.25;6214685;23;20015;-80
2021/04/22 14:50:47;;;;;;;2.05;1.70;;;;;;;21.11;31.55;99169.28;6216026;23;20103;-79
2021/04/22 14:53:12;;;;;;;2.72;2.50;;;;;;;21.10;32.38;99162.28;6214410;23;20678;-79
2021/04/22 14:55:38;;;;;;;2.40;1.77;;;;;;;21.03;32.89;99156.63;6215531;23;20006;-78
2021/04/22 14:58:04;;;;;;;3.67;2.75;;;;;;;21.02;33.53;99165.91;6241284;23;20353;-78
2021/04/22 15:00:30;;;;;;;1.90;1.50;;;;;;;20.97;34.05;99171.59;6216168;23;19996;-78
2021/04/22 15:02:55;;;;;;;3.00;2.10;;;;;;;20.91;34.50;99169.09;6215883;23;20000;-78
2021/04/22 15:05:21;;;;;;;2.55;2.10;;;;;;;20.92;34.83;99165.25;6241138;23;20069;-77
2021/04/22 15:07:46;;;;;;;3.42;2.08;;;;;;;20.87;34.60;99153.81;6242481;23;20430;-78